sensor_id;sensor_type;location;lat;lon;timestamp;P1;durP1;ratioP1;P2;durP2;ratioP2
3613;SDS011;1821;50.936;6.854;2022-09-01T00:00:33;4.20;;;2.30;;
3613;SDS011;1821;50.936;6.854;2022-09-01T00:01:16;4.93;;;2.50;;
3613;SDS011;1821;50.936;6.854;2022-09-01T00:02:02;3.83;;;2.33;;
3613;SDS011;1821;50.936;6.854;2022-09-01T00:02:48;5.00;;;2.60;;
3613;SDS011;1821;50.936;6.854;2022-09-01T00:03:31;3.30;;;2.22;;
3613;SDS011;1821;50.936;6.854;2022-09-01T00:04:14;4.85;;;2.45;;
3613;SDS011;1821;50.936;6.854;2022-09-01T00:04:58;4.80;;;2.75;;
3613;SDS011;1821;50.936;6.854;2022-09-01T00:05:40;3.50;;;2.60;;
3613;SDS011;1821;50.936;6.854;2022-09-01T00:06:22;3.40;;;2.60;;
3613;SDS011;1821;50.936;6.854;2022-09-01T00:07:05;3.85;;;2.78;;
3613;SDS011;1821;50.936;6.854;2022-09-01T00:07:48;4.10;;;2.70;;
3613;SDS011;1821;50.936;6.854;2022-09-01T00:08:30;4.93;;;2.13;;
3613;SDS011;1821;50.936;6.854;2022-09-01T00:09:13;4.40;;;2.40;;
3613;SDS011;1821;50.936;6.854;2022-09-01T00:09:58;4.38;;;2.60;;
3613;SDS011;1821;50.936;6.854;2022-09-01T00:10:40;3.58;;;2.60;;
3613;SDS011;1821;50.936;6.854;2022-09-01T00:11:23;3.70;;;2.50;;
3613;SDS011;1821;50.936;6.854;2022-09-01T00:12:07;3.65;;;2.10;;
3613;SDS011;1821;50.936;6.854;2022-09-01T00:12:49;3.50;;;2.28;;
3613;SDS011;1821;50.936;6.854;2022-09-01T00:13:31;4.47;;;2.70;;
3613;SDS011;1821;50.936;6.854;2022-09-01T00:14:14;4.30;;;2.60;;
3613;SDS011;1821;50.936;6.854;2022-09-01T00:15:11;3.50;;;2.60;;
3613;SDS011;1821;50.936;6.854;2022-09-01T00:15:53;3.42;;;2.45;;
3613;SDS011;1821;50.936;6.854;2022-09-01T00:16:35;3.38;;;2.30;;
3613;SDS011;1821;50.936;6.854;2022-09-01T00:17:17;4.20;;;2.30;;
3613;SDS011;1821;50.936;6.854;2022-09-01T00:17:59;5.50;;;2.30;;
3613;SDS011;1821;50.936;6.854;2022-09-01T00:18:41;5.22;;;2.60;;
3613;SDS011;1821;50.936;6.854;2022-09-01T00:19:26;5.10;;;2.80;;
3613;SDS011;1821;50.936;6.854;2022-09-01T00:20:09;3.70;;;2.80;;
3613;SDS011;1821;50.936;6.854;2022-09-01T00:20:51;3.30;;;2.38;;
3613;SDS011;1821;50.936;6.854;2022-09-01T00:21:37;4.88;;;2.60;;
3613;SDS011;1821;50.936;6.854;2022-09-01T00:22:21;4.30;;;2.53;;
3613;SDS011;1821;50.936;6.854;2022-09-01T00:23:03;4.40;;;2.75;;
3613;SDS011;1821;50.936;6.854;2022-09-01T00:23:45;4.22;;;2.40;;
3613;SDS011;1821;50.936;6.854;2022-09-01T00:24:27;3.80;;;2.40;;
3613;SDS011;1821;50.936;6.854;2022-09-01T00:25:09;4.70;;;2.50;;
3613;SDS011;1821;50.936;6.854;2022-09-01T00:25:51;3.85;;;2.50;;
3613;SDS011;1821;50.936;6.854;2022-09-01T00:26:34;3.53;;;2.40;;
3613;SDS011;1821;50.936;6.854;2022-09-01T00:27:17;5.43;;;2.60;;
3613;SDS011;1821;50.936;6.854;2022-09-01T00:27:59;5.50;;;2.80;;
3613;SDS011;1821;50.936;6.854;2022-09-01T00:28:44;5.28;;;2.80;;
3613;SDS011;1821;50.936;6.854;2022-09-01T00:29:26;5.45;;;2.70;;
3613;SDS011;1821;50.936;6.854;2022-09-01T00:30:08;4.10;;;2.40;;
3613;SDS011;1821;50.936;6.854;2022-09-01T00:30:50;3.30;;;2.20;;
3613;SDS011;1821;50.936;6.854;2022-09-01T00:31:35;3.80;;;2.60;;
3613;SDS011;1821;50.936;6.854;2022-09-01T00:32:17;3.80;;;2.35;;
3613;SDS011;1821;50.936;6.854;2022-09-01T00:32:59;3.50;;;2.30;;
3613;SDS011;1821;50.936;6.854;2022-09-01T00:33:42;3.90;;;2.58;;
3613;SDS011;1821;50.936;6.854;2022-09-01T00:34:24;3.70;;;2.50;;
3613;SDS011;1821;50.936;6.854;2022-09-01T00:35:06;4.18;;;2.70;;
3613;SDS011;1821;50.936;6.854;2022-09-01T00:35:48;4.07;;;2.55;;
3613;SDS011;1821;50.936;6.854;2022-09-01T00:36:30;3.60;;;2.50;;
3613;SDS011;1821;50.936;6.854;2022-09-01T00:37:12;3.60;;;2.70;;
3613;SDS011;1821;50.936;6.854;2022-09-01T00:37:54;3.80;;;2.42;;
3613;SDS011;1821;50.936;6.854;2022-09-01T00:38:37;3.80;;;2.55;;
3613;SDS011;1821;50.936;6.854;2022-09-01T00:39:19;4.00;;;2.70;;
3613;SDS011;1821;50.936;6.854;2022-09-01T00:40:01;3.78;;;2.50;;
3613;SDS011;1821;50.936;6.854;2022-09-01T00:40:44;3.80;;;2.40;;
3613;SDS011;1821;50.936;6.854;2022-09-01T00:41:27;3.72;;;2.30;;
3613;SDS011;1821;50.936;6.854;2022-09-01T00:42:11;4.28;;;2.60;;
3613;SDS011;1821;50.936;6.854;2022-09-01T00:42:53;4.28;;;2.70;;
3613;SDS011;1821;50.936;6.854;2022-09-01T00:43:39;4.03;;;2.60;;
3613;SDS011;1821;50.936;6.854;2022-09-01T00:44:54;3.17;;;2.22;;
3613;SDS011;1821;50.936;6.854;2022-09-01T00:45:35;3.42;;;2.38;;
3613;SDS011;1821;50.936;6.854;2022-09-01T00:46:19;3.80;;;2.70;;
3613;SDS011;1821;50.936;6.854;2022-09-01T00:47:02;6.32;;;2.80;;
3613;SDS011;1821;50.936;6.854;2022-09-01T00:47:46;3.95;;;2.90;;
3613;SDS011;1821;50.936;6.854;2022-09-01T00:48:28;4.25;;;2.65;;
3613;SDS011;1821;50.936;6.854;2022-09-01T00:49:18;3.25;;;2.30;;
3613;SDS011;1821;50.936;6.854;2022-09-01T00:50:04;4.28;;;2.47;;
3613;SDS011;1821;50.936;6.854;2022-09-01T00:50:47;4.72;;;2.70;;
3613;SDS011;1821;50.936;6.854;2022-09-01T00:51:35;3.95;;;2.60;;
3613;SDS011;1821;50.936;6.854;2022-09-01T00:52:25;4.43;;;2.58;;
3613;SDS011;1821;50.936;6.854;2022-09-01T00:53:12;6.38;;;2.80;;
3613;SDS011;1821;50.936;6.854;2022-09-01T00:53:55;4.90;;;2.95;;
3613;SDS011;1821;50.936;6.854;2022-09-01T00:54:40;4.20;;;2.60;;
3613;SDS011;1821;50.936;6.854;2022-09-01T00:55:29;4.00;;;2.60;;
3613;SDS011;1821;50.936;6.854;2022-09-01T00:56:12;3.40;;;2.60;;
3613;SDS011;1821;50.936;6.854;2022-09-01T00:56:54;3.75;;;2.70;;
3613;SDS011;1821;50.936;6.854;2022-09-01T00:57:38;3.78;;;2.70;;
3613;SDS011;1821;50.936;6.854;2022-09-01T00:58:21;3.80;;;2.72;;
3613;SDS011;1821;50.936;6.854;2022-09-01T00:59:03;3.80;;;2.83;;
3613;SDS011;1821;50.936;6.854;2022-09-01T00:59:57;4.80;;;2.70;;
3613;SDS011;1821;50.936;6.854;2022-09-01T01:00:41;4.18;;;2.83;;
3613;SDS011;1821;50.936;6.854;2022-09-01T01:01:27;4.03;;;2.90;;
3613;SDS011;1821;50.936;6.854;2022-09-01T01:02:08;4.70;;;2.80;;
3613;SDS011;1821;50.936;6.854;2022-09-01T01:02:51;4.20;;;2.60;;
3613;SDS011;1821;50.936;6.854;2022-09-01T01:03:37;3.92;;;2.67;;
3613;SDS011;1821;50.936;6.854;2022-09-01T01:04:25;4.30;;;2.55;;
3613;SDS011;1821;50.936;6.854;2022-09-01T01:05:08;4.15;;;2.80;;
3613;SDS011;1821;50.936;6.854;2022-09-01T01:05:56;3.50;;;2.60;;
3613;SDS011;1821;50.936;6.854;2022-09-01T01:06:45;4.20;;;2.42;;
3613;SDS011;1821;50.936;6.854;2022-09-01T01:07:30;5.20;;;2.30;;
3613;SDS011;1821;50.936;6.854;2022-09-01T01:08:29;3.90;;;2.67;;
3613;SDS011;1821;50.936;6.854;2022-09-01T01:09:24;4.70;;;3.00;;
3613;SDS011;1821;50.936;6.854;2022-09-01T01:10:08;4.10;;;2.90;;
3613;SDS011;1821;50.936;6.854;2022-09-01T01:10:52;4.60;;;2.90;;
3613;SDS011;1821;50.936;6.854;2022-09-01T01:11:34;4.05;;;2.70;;
3613;SDS011;1821;50.936;6.854;2022-09-01T01:12:16;4.80;;;3.00;;
3613;SDS011;1821;50.936;6.854;2022-09-01T01:12:58;4.50;;;2.50;;
3613;SDS011;1821;50.936;6.854;2022-09-01T01:13:52;4.90;;;2.80;;
3613;SDS011;1821;50.936;6.854;2022-09-01T01:14:55;3.97;;;2.50;;
3613;SDS011;1821;50.936;6.854;2022-09-01T01:15:37;3.90;;;2.60;;
3613;SDS011;1821;50.936;6.854;2022-09-01T01:16:19;4.45;;;2.65;;
3613;SDS011;1821;50.936;6.854;2022-09-01T01:17:02;4.97;;;2.60;;
3613;SDS011;1821;50.936;6.854;2022-09-01T01:17:44;3.60;;;2.60;;
3613;SDS011;1821;50.936;6.854;2022-09-01T01:18:26;4.68;;;2.70;;
3613;SDS011;1821;50.936;6.854;2022-09-01T01:19:09;4.10;;;2.75;;
3613;SDS011;1821;50.936;6.854;2022-09-01T01:20:24;4.82;;;2.55;;
3613;SDS011;1821;50.936;6.854;2022-09-01T01:21:32;4.80;;;2.53;;
3613;SDS011;1821;50.936;6.854;2022-09-01T01:23:15;3.65;;;2.40;;
3613;SDS011;1821;50.936;6.854;2022-09-01T01:25:04;3.80;;;2.42;;
3613;SDS011;1821;50.936;6.854;2022-09-01T01:25:51;4.07;;;2.50;;
3613;SDS011;1821;50.936;6.854;2022-09-01T01:26:36;4.35;;;2.60;;
3613;SDS011;1821;50.936;6.854;2022-09-01T01:27:18;3.67;;;2.53;;
3613;SDS011;1821;50.936;6.854;2022-09-01T01:28:03;4.25;;;2.70;;
3613;SDS011;1821;50.936;6.854;2022-09-01T01:28:46;3.90;;;2.42;;
3613;SDS011;1821;50.936;6.854;2022-09-01T01:29:32;3.90;;;2.70;;
3613;SDS011;1821;50.936;6.854;2022-09-01T01:30:17;5.37;;;3.00;;
3613;SDS011;1821;50.936;6.854;2022-09-01T01:31:03;5.07;;;2.70;;
3613;SDS011;1821;50.936;6.854;2022-09-01T01:31:52;3.80;;;2.60;;
3613;SDS011;1821;50.936;6.854;2022-09-01T01:32:34;3.90;;;2.50;;
3613;SDS011;1821;50.936;6.854;2022-09-01T01:33:19;4.13;;;2.80;;
3613;SDS011;1821;50.936;6.854;2022-09-01T01:34:04;3.13;;;2.25;;
3613;SDS011;1821;50.936;6.854;2022-09-01T01:34:48;3.70;;;2.50;;
3613;SDS011;1821;50.936;6.854;2022-09-01T01:35:30;3.80;;;2.50;;
3613;SDS011;1821;50.936;6.854;2022-09-01T01:36:15;5.00;;;2.90;;
3613;SDS011;1821;50.936;6.854;2022-09-01T01:37:05;5.20;;;3.10;;
3613;SDS011;1821;50.936;6.854;2022-09-01T01:37:47;4.00;;;2.70;;
3613;SDS011;1821;50.936;6.854;2022-09-01T01:38:30;3.53;;;2.50;;
3613;SDS011;1821;50.936;6.854;2022-09-01T01:39:13;3.60;;;2.50;;
3613;SDS011;1821;50.936;6.854;2022-09-01T01:39:58;3.47;;;2.40;;
3613;SDS011;1821;50.936;6.854;2022-09-01T01:40:39;4.20;;;2.47;;
3613;SDS011;1821;50.936;6.854;2022-09-01T01:41:21;3.25;;;2.40;;
3613;SDS011;1821;50.936;6.854;2022-09-01T01:42:04;3.35;;;2.40;;
3613;SDS011;1821;50.936;6.854;2022-09-01T01:42:50;3.88;;;2.38;;
3613;SDS011;1821;50.936;6.854;2022-09-01T01:43:33;3.50;;;2.60;;
3613;SDS011;1821;50.936;6.854;2022-09-01T01:44:15;3.90;;;2.53;;
3613;SDS011;1821;50.936;6.854;2022-09-01T01:44:59;4.28;;;2.58;;
3613;SDS011;1821;50.936;6.854;2022-09-01T01:45:41;3.88;;;2.55;;
3613;SDS011;1821;50.936;6.854;2022-09-01T01:46:23;3.55;;;2.35;;
3613;SDS011;1821;50.936;6.854;2022-09-01T01:47:07;3.60;;;2.50;;
3613;SDS011;1821;50.936;6.854;2022-09-01T01:47:53;4.00;;;2.50;;
3613;SDS011;1821;50.936;6.854;2022-09-01T01:48:37;3.25;;;2.20;;
3613;SDS011;1821;50.936;6.854;2022-09-01T01:49:22;4.80;;;2.63;;
3613;SDS011;1821;50.936;6.854;2022-09-01T01:50:06;4.05;;;2.60;;
3613;SDS011;1821;50.936;6.854;2022-09-01T01:50:53;4.20;;;2.50;;
3613;SDS011;1821;50.936;6.854;2022-09-01T01:51:38;4.05;;;2.50;;
3613;SDS011;1821;50.936;6.854;2022-09-01T01:52:21;5.00;;;2.70;;
3613;SDS011;1821;50.936;6.854;2022-09-01T01:53:07;3.80;;;2.47;;
3613;SDS011;1821;50.936;6.854;2022-09-01T01:53:51;4.22;;;2.30;;
3613;SDS011;1821;50.936;6.854;2022-09-01T01:54:34;4.30;;;2.40;;
3613;SDS011;1821;50.936;6.854;2022-09-01T01:55:18;5.30;;;2.80;;
3613;SDS011;1821;50.936;6.854;2022-09-01T01:56:01;4.55;;;2.83;;
3613;SDS011;1821;50.936;6.854;2022-09-01T01:56:44;3.70;;;2.40;;
3613;SDS011;1821;50.936;6.854;2022-09-01T01:57:25;3.60;;;2.70;;
3613;SDS011;1821;50.936;6.854;2022-09-01T01:58:12;5.50;;;2.80;;
3613;SDS011;1821;50.936;6.854;2022-09-01T01:58:55;3.70;;;2.60;;
3613;SDS011;1821;50.936;6.854;2022-09-01T01:59:37;4.00;;;2.70;;
3613;SDS011;1821;50.936;6.854;2022-09-01T02:00:22;4.68;;;2.60;;
3613;SDS011;1821;50.936;6.854;2022-09-01T02:01:10;7.20;;;2.80;;
3613;SDS011;1821;50.936;6.854;2022-09-01T02:01:53;5.30;;;2.85;;
3613;SDS011;1821;50.936;6.854;2022-09-01T02:02:36;5.10;;;2.70;;
3613;SDS011;1821;50.936;6.854;2022-09-01T02:03:19;3.50;;;2.50;;
3613;SDS011;1821;50.936;6.854;2022-09-01T02:04:03;4.10;;;2.70;;
3613;SDS011;1821;50.936;6.854;2022-09-01T02:04:45;4.10;;;2.42;;
3613;SDS011;1821;50.936;6.854;2022-09-01T02:05:31;6.03;;;2.60;;
3613;SDS011;1821;50.936;6.854;2022-09-01T02:06:15;8.20;;;3.40;;
3613;SDS011;1821;50.936;6.854;2022-09-01T02:06:59;4.28;;;3.00;;
3613;SDS011;1821;50.936;6.854;2022-09-01T02:07:41;4.80;;;2.70;;
3613;SDS011;1821;50.936;6.854;2022-09-01T02:08:23;4.22;;;2.70;;
3613;SDS011;1821;50.936;6.854;2022-09-01T02:09:06;3.30;;;2.42;;
3613;SDS011;1821;50.936;6.854;2022-09-01T02:09:48;3.40;;;2.40;;
3613;SDS011;1821;50.936;6.854;2022-09-01T02:10:32;6.40;;;2.60;;
3613;SDS011;1821;50.936;6.854;2022-09-01T02:11:16;4.45;;;2.80;;
3613;SDS011;1821;50.936;6.854;2022-09-01T02:11:59;5.15;;;2.90;;
3613;SDS011;1821;50.936;6.854;2022-09-01T02:12:40;4.18;;;2.45;;
3613;SDS011;1821;50.936;6.854;2022-09-01T02:13:23;3.50;;;2.40;;
3613;SDS011;1821;50.936;6.854;2022-09-01T02:14:10;4.32;;;2.50;;
3613;SDS011;1821;50.936;6.854;2022-09-01T02:14:53;3.90;;;2.70;;
3613;SDS011;1821;50.936;6.854;2022-09-01T02:15:37;3.20;;;2.50;;
3613;SDS011;1821;50.936;6.854;2022-09-01T02:16:26;5.50;;;2.90;;
3613;SDS011;1821;50.936;6.854;2022-09-01T02:17:09;5.70;;;2.90;;
3613;SDS011;1821;50.936;6.854;2022-09-01T02:17:51;4.57;;;2.80;;
3613;SDS011;1821;50.936;6.854;2022-09-01T02:18:45;4.70;;;3.20;;
3613;SDS011;1821;50.936;6.854;2022-09-01T02:19:30;3.90;;;2.83;;
3613;SDS011;1821;50.936;6.854;2022-09-01T02:20:11;3.28;;;2.35;;
3613;SDS011;1821;50.936;6.854;2022-09-01T02:20:56;3.60;;;2.38;;
3613;SDS011;1821;50.936;6.854;2022-09-01T02:21:39;6.10;;;2.80;;
3613;SDS011;1821;50.936;6.854;2022-09-01T02:22:24;6.50;;;3.20;;
3613;SDS011;1821;50.936;6.854;2022-09-01T02:23:06;6.05;;;2.97;;
3613;SDS011;1821;50.936;6.854;2022-09-01T02:23:52;7.30;;;2.97;;
3613;SDS011;1821;50.936;6.854;2022-09-01T02:24:42;3.90;;;2.95;;
3613;SDS011;1821;50.936;6.854;2022-09-01T02:25:29;4.45;;;3.00;;
3613;SDS011;1821;50.936;6.854;2022-09-01T02:26:12;5.18;;;3.22;;
3613;SDS011;1821;50.936;6.854;2022-09-01T02:26:57;4.97;;;3.08;;
3613;SDS011;1821;50.936;6.854;2022-09-01T02:27:40;3.40;;;2.70;;
3613;SDS011;1821;50.936;6.854;2022-09-01T02:28:23;3.80;;;2.80;;
3613;SDS011;1821;50.936;6.854;2022-09-01T02:29:11;4.07;;;2.80;;
3613;SDS011;1821;50.936;6.854;2022-09-01T02:30:02;5.30;;;3.08;;
3613;SDS011;1821;50.936;6.854;2022-09-01T02:30:48;5.30;;;3.05;;
3613;SDS011;1821;50.936;6.854;2022-09-01T02:31:38;9.10;;;3.20;;
3613;SDS011;1821;50.936;6.854;2022-09-01T02:32:20;3.67;;;2.70;;
3613;SDS011;1821;50.936;6.854;2022-09-01T02:33:02;4.80;;;2.95;;
3613;SDS011;1821;50.936;6.854;2022-09-01T02:33:45;5.03;;;2.90;;
3613;SDS011;1821;50.936;6.854;2022-09-01T02:34:27;5.57;;;3.20;;
3613;SDS011;1821;50.936;6.854;2022-09-01T02:35:09;4.97;;;3.00;;
3613;SDS011;1821;50.936;6.854;2022-09-01T02:35:53;6.82;;;3.20;;
3613;SDS011;1821;50.936;6.854;2022-09-01T02:36:37;4.53;;;2.90;;
3613;SDS011;1821;50.936;6.854;2022-09-01T02:37:22;3.83;;;2.90;;
3613;SDS011;1821;50.936;6.854;2022-09-01T02:38:05;4.90;;;2.80;;
3613;SDS011;1821;50.936;6.854;2022-09-01T02:38:48;4.60;;;2.70;;
3613;SDS011;1821;50.936;6.854;2022-09-01T02:39:35;3.42;;;2.80;;
3613;SDS011;1821;50.936;6.854;2022-09-01T02:40:16;3.78;;;3.05;;
3613;SDS011;1821;50.936;6.854;2022-09-01T02:40:59;3.83;;;3.05;;
3613;SDS011;1821;50.936;6.854;2022-09-01T02:41:42;3.67;;;2.75;;
3613;SDS011;1821;50.936;6.854;2022-09-01T02:42:24;4.30;;;2.90;;
3613;SDS011;1821;50.936;6.854;2022-09-01T02:43:09;4.80;;;2.80;;
3613;SDS011;1821;50.936;6.854;2022-09-01T02:43:52;4.57;;;2.97;;
3613;SDS011;1821;50.936;6.854;2022-09-01T02:44:34;5.07;;;3.00;;
3613;SDS011;1821;50.936;6.854;2022-09-01T02:45:21;5.40;;;2.80;;
3613;SDS011;1821;50.936;6.854;2022-09-01T02:46:05;4.90;;;2.95;;
3613;SDS011;1821;50.936;6.854;2022-09-01T02:46:48;5.72;;;3.00;;
3613;SDS011;1821;50.936;6.854;2022-09-01T02:47:30;4.90;;;3.00;;
3613;SDS011;1821;50.936;6.854;2022-09-01T02:48:12;4.68;;;3.00;;
3613;SDS011;1821;50.936;6.854;2022-09-01T02:48:54;4.90;;;3.03;;
3613;SDS011;1821;50.936;6.854;2022-09-01T02:49:36;4.60;;;2.80;;
3613;SDS011;1821;50.936;6.854;2022-09-01T02:50:18;3.88;;;2.90;;
3613;SDS011;1821;50.936;6.854;2022-09-01T02:51:03;4.82;;;3.13;;
3613;SDS011;1821;50.936;6.854;2022-09-01T02:51:51;6.40;;;3.10;;
3613;SDS011;1821;50.936;6.854;2022-09-01T02:52:34;4.43;;;3.20;;
3613;SDS011;1821;50.936;6.854;2022-09-01T02:53:17;3.80;;;3.20;;
3613;SDS011;1821;50.936;6.854;2022-09-01T02:53:59;5.60;;;3.00;;
3613;SDS011;1821;50.936;6.854;2022-09-01T02:54:41;5.97;;;3.00;;
3613;SDS011;1821;50.936;6.854;2022-09-01T02:55:25;4.15;;;2.75;;
3613;SDS011;1821;50.936;6.854;2022-09-01T02:56:08;4.00;;;3.30;;
3613;SDS011;1821;50.936;6.854;2022-09-01T02:56:54;4.50;;;3.13;;
3613;SDS011;1821;50.936;6.854;2022-09-01T02:57:36;4.60;;;2.90;;
3613;SDS011;1821;50.936;6.854;2022-09-01T02:58:18;4.00;;;2.80;;
3613;SDS011;1821;50.936;6.854;2022-09-01T02:59:05;4.60;;;2.90;;
3613;SDS011;1821;50.936;6.854;2022-09-01T02:59:53;3.78;;;2.85;;
3613;SDS011;1821;50.936;6.854;2022-09-01T03:00:39;4.38;;;3.13;;
3613;SDS011;1821;50.936;6.854;2022-09-01T03:01:28;4.50;;;3.00;;
3613;SDS011;1821;50.936;6.854;2022-09-01T03:02:12;3.80;;;3.20;;
3613;SDS011;1821;50.936;6.854;2022-09-01T03:02:55;5.03;;;3.33;;
3613;SDS011;1821;50.936;6.854;2022-09-01T03:03:41;4.53;;;3.30;;
3613;SDS011;1821;50.936;6.854;2022-09-01T03:04:23;4.78;;;3.10;;
3613;SDS011;1821;50.936;6.854;2022-09-01T03:05:05;4.70;;;3.17;;
3613;SDS011;1821;50.936;6.854;2022-09-01T03:05:50;5.28;;;3.80;;
3613;SDS011;1821;50.936;6.854;2022-09-01T03:06:36;5.05;;;3.15;;
3613;SDS011;1821;50.936;6.854;2022-09-01T03:07:18;4.20;;;3.03;;
3613;SDS011;1821;50.936;6.854;2022-09-01T03:08:03;4.10;;;3.13;;
3613;SDS011;1821;50.936;6.854;2022-09-01T03:08:49;4.18;;;3.35;;
3613;SDS011;1821;50.936;6.854;2022-09-01T03:09:33;4.00;;;3.10;;
3613;SDS011;1821;50.936;6.854;2022-09-01T03:10:15;4.10;;;3.33;;
3613;SDS011;1821;50.936;6.854;2022-09-01T03:10:58;4.07;;;2.50;;
3613;SDS011;1821;50.936;6.854;2022-09-01T03:11:44;4.10;;;2.90;;
3613;SDS011;1821;50.936;6.854;2022-09-01T03:12:28;3.80;;;2.90;;
3613;SDS011;1821;50.936;6.854;2022-09-01T03:13:11;4.22;;;3.10;;
3613;SDS011;1821;50.936;6.854;2022-09-01T03:13:55;5.80;;;3.30;;
3613;SDS011;1821;50.936;6.854;2022-09-01T03:14:37;6.50;;;3.50;;
3613;SDS011;1821;50.936;6.854;2022-09-01T03:15:19;4.38;;;3.53;;
3613;SDS011;1821;50.936;6.854;2022-09-01T03:16:02;4.97;;;3.40;;
3613;SDS011;1821;50.936;6.854;2022-09-01T03:16:45;4.28;;;2.90;;
3613;SDS011;1821;50.936;6.854;2022-09-01T03:17:27;4.18;;;2.70;;
3613;SDS011;1821;50.936;6.854;2022-09-01T03:18:09;3.88;;;2.80;;
3613;SDS011;1821;50.936;6.854;2022-09-01T03:18:52;5.60;;;3.08;;
3613;SDS011;1821;50.936;6.854;2022-09-01T03:19:34;4.07;;;3.08;;
3613;SDS011;1821;50.936;6.854;2022-09-01T03:20:24;4.95;;;2.88;;
3613;SDS011;1821;50.936;6.854;2022-09-01T03:21:06;5.57;;;3.00;;
3613;SDS011;1821;50.936;6.854;2022-09-01T03:21:49;4.90;;;3.15;;
3613;SDS011;1821;50.936;6.854;2022-09-01T03:22:31;3.70;;;3.00;;
3613;SDS011;1821;50.936;6.854;2022-09-01T03:23:15;5.50;;;2.80;;
3613;SDS011;1821;50.936;6.854;2022-09-01T03:23:59;5.30;;;3.30;;
3613;SDS011;1821;50.936;6.854;2022-09-01T03:24:43;4.60;;;3.10;;
3613;SDS011;1821;50.936;6.854;2022-09-01T03:25:25;3.85;;;2.72;;
3613;SDS011;1821;50.936;6.854;2022-09-01T03:26:10;3.70;;;2.67;;
3613;SDS011;1821;50.936;6.854;2022-09-01T03:26:52;3.67;;;2.80;;
3613;SDS011;1821;50.936;6.854;2022-09-01T03:27:35;4.00;;;2.80;;
3613;SDS011;1821;50.936;6.854;2022-09-01T03:28:17;3.97;;;2.80;;
3613;SDS011;1821;50.936;6.854;2022-09-01T03:28:59;3.95;;;2.67;;
3613;SDS011;1821;50.936;6.854;2022-09-01T03:29:41;4.20;;;2.92;;
3613;SDS011;1821;50.936;6.854;2022-09-01T03:30:23;3.92;;;2.55;;
3613;SDS011;1821;50.936;6.854;2022-09-01T03:31:07;4.70;;;2.95;;
3613;SDS011;1821;50.936;6.854;2022-09-01T03:31:49;4.05;;;2.80;;
3613;SDS011;1821;50.936;6.854;2022-09-01T03:32:31;3.80;;;2.83;;
3613;SDS011;1821;50.936;6.854;2022-09-01T03:33:12;4.00;;;2.70;;
3613;SDS011;1821;50.936;6.854;2022-09-01T03:33:55;4.80;;;3.00;;
3613;SDS011;1821;50.936;6.854;2022-09-01T03:34:37;5.00;;;3.05;;
3613;SDS011;1821;50.936;6.854;2022-09-01T03:35:19;4.30;;;3.38;;
3613;SDS011;1821;50.936;6.854;2022-09-01T03:36:03;4.78;;;3.10;;
3613;SDS011;1821;50.936;6.854;2022-09-01T03:36:55;5.20;;;2.80;;
3613;SDS011;1821;50.936;6.854;2022-09-01T03:37:36;4.97;;;2.75;;
3613;SDS011;1821;50.936;6.854;2022-09-01T03:38:19;6.45;;;2.65;;
3613;SDS011;1821;50.936;6.854;2022-09-01T03:39:04;4.07;;;2.80;;
3613;SDS011;1821;50.936;6.854;2022-09-01T03:39:47;4.40;;;2.90;;
3613;SDS011;1821;50.936;6.854;2022-09-01T03:40:35;4.20;;;2.90;;
3613;SDS011;1821;50.936;6.854;2022-09-01T03:41:18;3.97;;;2.90;;
3613;SDS011;1821;50.936;6.854;2022-09-01T03:42:03;4.00;;;3.10;;
3613;SDS011;1821;50.936;6.854;2022-09-01T03:42:45;3.90;;;3.17;;
3613;SDS011;1821;50.936;6.854;2022-09-01T03:43:27;4.63;;;2.72;;
3613;SDS011;1821;50.936;6.854;2022-09-01T03:44:16;5.68;;;3.00;;
3613;SDS011;1821;50.936;6.854;2022-09-01T03:44:58;4.15;;;2.92;;
3613;SDS011;1821;50.936;6.854;2022-09-01T03:45:40;3.90;;;3.03;;
3613;SDS011;1821;50.936;6.854;2022-09-01T03:46:22;4.40;;;3.10;;
3613;SDS011;1821;50.936;6.854;2022-09-01T03:47:04;5.13;;;3.15;;
3613;SDS011;1821;50.936;6.854;2022-09-01T03:47:53;4.20;;;2.80;;
3613;SDS011;1821;50.936;6.854;2022-09-01T03:48:36;3.47;;;2.83;;
3613;SDS011;1821;50.936;6.854;2022-09-01T03:49:19;4.60;;;3.10;;
3613;SDS011;1821;50.936;6.854;2022-09-01T03:50:10;3.80;;;2.55;;
3613;SDS011;1821;50.936;6.854;2022-09-01T03:51:00;5.13;;;3.30;;
3613;SDS011;1821;50.936;6.854;2022-09-01T03:51:46;6.57;;;3.45;;
3613;SDS011;1821;50.936;6.854;2022-09-01T03:52:27;5.75;;;2.80;;
3613;SDS011;1821;50.936;6.854;2022-09-01T03:53:10;4.40;;;2.67;;
3613;SDS011;1821;50.936;6.854;2022-09-01T03:53:54;3.60;;;2.90;;
3613;SDS011;1821;50.936;6.854;2022-09-01T03:54:39;3.80;;;2.95;;
3613;SDS011;1821;50.936;6.854;2022-09-01T03:55:22;4.32;;;2.70;;
3613;SDS011;1821;50.936;6.854;2022-09-01T03:56:07;4.50;;;2.75;;
3613;SDS011;1821;50.936;6.854;2022-09-01T03:56:49;4.55;;;3.25;;
3613;SDS011;1821;50.936;6.854;2022-09-01T03:57:30;4.37;;;3.00;;
3613;SDS011;1821;50.936;6.854;2022-09-01T03:58:17;5.53;;;2.60;;
3613;SDS011;1821;50.936;6.854;2022-09-01T03:59:00;3.72;;;2.70;;
3613;SDS011;1821;50.936;6.854;2022-09-01T03:59:41;3.40;;;2.80;;
3613;SDS011;1821;50.936;6.854;2022-09-01T04:00:25;3.80;;;2.97;;
3613;SDS011;1821;50.936;6.854;2022-09-01T04:01:09;4.60;;;3.50;;
3613;SDS011;1821;50.936;6.854;2022-09-01T04:01:54;6.18;;;3.13;;
3613;SDS011;1821;50.936;6.854;2022-09-01T04:02:37;4.57;;;3.00;;
3613;SDS011;1821;50.936;6.854;2022-09-01T04:03:21;4.45;;;3.00;;
3613;SDS011;1821;50.936;6.854;2022-09-01T04:04:11;6.72;;;3.53;;
3613;SDS011;1821;50.936;6.854;2022-09-01T04:04:56;6.88;;;3.80;;
3613;SDS011;1821;50.936;6.854;2022-09-01T04:05:42;6.25;;;3.65;;
3613;SDS011;1821;50.936;6.854;2022-09-01T04:06:24;3.78;;;3.15;;
3613;SDS011;1821;50.936;6.854;2022-09-01T04:07:06;4.20;;;3.40;;
3613;SDS011;1821;50.936;6.854;2022-09-01T04:07:48;4.40;;;3.23;;
3613;SDS011;1821;50.936;6.854;2022-09-01T04:08:30;4.95;;;3.20;;
3613;SDS011;1821;50.936;6.854;2022-09-01T04:09:13;4.13;;;3.30;;
3613;SDS011;1821;50.936;6.854;2022-09-01T04:09:55;4.38;;;3.40;;
3613;SDS011;1821;50.936;6.854;2022-09-01T04:10:42;5.40;;;3.42;;
3613;SDS011;1821;50.936;6.854;2022-09-01T04:11:34;6.07;;;3.28;;
3613;SDS011;1821;50.936;6.854;2022-09-01T04:12:25;5.38;;;3.25;;
3613;SDS011;1821;50.936;6.854;2022-09-01T04:13:07;4.70;;;3.00;;
3613;SDS011;1821;50.936;6.854;2022-09-01T04:13:53;5.43;;;3.30;;
3613;SDS011;1821;50.936;6.854;2022-09-01T04:14:35;7.25;;;3.38;;
3613;SDS011;1821;50.936;6.854;2022-09-01T04:15:17;9.40;;;3.70;;
3613;SDS011;1821;50.936;6.854;2022-09-01T04:15:59;4.90;;;3.47;;
3613;SDS011;1821;50.936;6.854;2022-09-01T04:16:41;4.53;;;3.60;;
3613;SDS011;1821;50.936;6.854;2022-09-01T04:17:43;4.10;;;3.20;;
3613;SDS011;1821;50.936;6.854;2022-09-01T04:18:48;4.40;;;3.38;;
3613;SDS011;1821;50.936;6.854;2022-09-01T04:19:33;4.25;;;3.20;;
3613;SDS011;1821;50.936;6.854;2022-09-01T04:20:17;5.88;;;3.50;;
3613;SDS011;1821;50.936;6.854;2022-09-01T04:21:03;5.30;;;3.40;;
3613;SDS011;1821;50.936;6.854;2022-09-01T04:21:47;5.25;;;3.38;;
3613;SDS011;1821;50.936;6.854;2022-09-01T04:22:30;6.40;;;3.40;;
3613;SDS011;1821;50.936;6.854;2022-09-01T04:24:06;5.85;;;3.65;;
3613;SDS011;1821;50.936;6.854;2022-09-01T04:24:49;4.47;;;3.33;;
3613;SDS011;1821;50.936;6.854;2022-09-01T04:25:32;4.03;;;3.25;;
3613;SDS011;1821;50.936;6.854;2022-09-01T04:26:14;4.43;;;3.20;;
3613;SDS011;1821;50.936;6.854;2022-09-01T04:27:01;4.50;;;3.30;;
3613;SDS011;1821;50.936;6.854;2022-09-01T04:27:43;4.57;;;3.40;;
3613;SDS011;1821;50.936;6.854;2022-09-01T04:28:31;5.25;;;3.20;;
3613;SDS011;1821;50.936;6.854;2022-09-01T04:29:16;4.70;;;3.50;;
3613;SDS011;1821;50.936;6.854;2022-09-01T04:29:59;4.60;;;3.60;;
3613;SDS011;1821;50.936;6.854;2022-09-01T04:30:41;4.90;;;3.70;;
3613;SDS011;1821;50.936;6.854;2022-09-01T04:31:27;4.07;;;2.95;;
3613;SDS011;1821;50.936;6.854;2022-09-01T04:32:11;4.73;;;3.30;;
3613;SDS011;1821;50.936;6.854;2022-09-01T04:32:53;4.10;;;3.00;;
3613;SDS011;1821;50.936;6.854;2022-09-01T04:33:37;4.07;;;3.10;;
3613;SDS011;1821;50.936;6.854;2022-09-01T04:34:20;4.10;;;3.00;;
3613;SDS011;1821;50.936;6.854;2022-09-01T04:35:03;3.95;;;3.30;;
3613;SDS011;1821;50.936;6.854;2022-09-01T04:35:45;6.55;;;3.60;;
3613;SDS011;1821;50.936;6.854;2022-09-01T04:36:28;8.15;;;3.58;;
3613;SDS011;1821;50.936;6.854;2022-09-01T04:37:15;5.78;;;3.95;;
3613;SDS011;1821;50.936;6.854;2022-09-01T04:37:58;5.60;;;3.30;;
3613;SDS011;1821;50.936;6.854;2022-09-01T04:38:40;4.20;;;3.40;;